sensor_id;sensor_type;location;lat;lon;timestamp;temperature;humidity
3053;DHT22;1536;51.098;6.414;2024-02-21T00:00:10;10.70;99.90
3053;DHT22;1536;51.098;6.414;2024-02-21T00:02:37;10.80;99.90
3053;DHT22;1536;51.098;6.414;2024-02-21T00:05:05;10.80;99.90
3053;DHT22;1536;51.098;6.414;2024-02-21T00:07:32;10.80;99.90
3053;DHT22;1536;51.098;6.414;2024-02-21T00:10:01;10.80;99.90
3053;DHT22;1536;51.098;6.414;2024-02-21T00:12:28;10.80;99.90
3053;DHT22;1536;51.098;6.414;2024-02-21T00:14:55;10.80;99.90
3053;DHT22;1536;51.098;6.414;2024-02-21T00:17:22;10.80;99.90
3053;DHT22;1536;51.098;6.414;2024-02-21T00:19:51;10.80;99.90
3053;DHT22;1536;51.098;6.414;2024-02-21T00:22:18;10.80;99.90
3053;DHT22;1536;51.098;6.414;2024-02-21T00:24:45;10.70;99.90
3053;DHT22;1536;51.098;6.414;2024-02-21T00:27:13;10.80;99.90
3053;DHT22;1536;51.098;6.414;2024-02-21T00:29:40;10.80;99.90
3053;DHT22;1536;51.098;6.414;2024-02-21T00:32:07;10.80;99.90
3053;DHT22;1536;51.098;6.414;2024-02-21T00:34:33;10.80;99.90
3053;DHT22;1536;51.098;6.414;2024-02-21T00:37:01;10.70;99.90
3053;DHT22;1536;51.098;6.414;2024-02-21T00:39:28;10.80;99.90
3053;DHT22;1536;51.098;6.414;2024-02-21T00:41:54;10.70;99.90
3053;DHT22;1536;51.098;6.414;2024-02-21T00:44:23;10.80;99.90
3053;DHT22;1536;51.098;6.414;2024-02-21T00:46:50;10.80;99.90
3053;DHT22;1536;51.098;6.414;2024-02-21T00:49:18;10.80;99.90
3053;DHT22;1536;51.098;6.414;2024-02-21T00:51:45;10.80;99.90
3053;DHT22;1536;51.098;6.414;2024-02-21T00:54:11;10.80;99.90
3053;DHT22;1536;51.098;6.414;2024-02-21T00:56:38;10.70;99.90
3053;DHT22;1536;51.098;6.414;2024-02-21T00:59:05;10.80;99.90
3053;DHT22;1536;51.098;6.414;2024-02-21T01:01:33;10.80;99.90
3053;DHT22;1536;51.098;6.414;2024-02-21T01:04:00;10.70;99.90
3053;DHT22;1536;51.098;6.414;2024-02-21T01:06:27;10.80;99.90
3053;DHT22;1536;51.098;6.414;2024-02-21T01:08:54;10.80;99.90
3053;DHT22;1536;51.098;6.414;2024-02-21T01:11:22;10.80;99.90
3053;DHT22;1536;51.098;6.414;2024-02-21T01:13:49;10.70;99.90
3053;DHT22;1536;51.098;6.414;2024-02-21T01:16:16;10.70;99.90
3053;DHT22;1536;51.098;6.414;2024-02-21T01:18:44;10.70;99.90
3053;DHT22;1536;51.098;6.414;2024-02-21T01:21:12;10.70;99.90
3053;DHT22;1536;51.098;6.414;2024-02-21T01:23:39;10.70;99.90
3053;DHT22;1536;51.098;6.414;2024-02-21T01:26:06;10.70;99.90
3053;DHT22;1536;51.098;6.414;2024-02-21T01:28:33;10.70;99.90
3053;DHT22;1536;51.098;6.414;2024-02-21T01:31:01;10.80;99.90
3053;DHT22;1536;51.098;6.414;2024-02-21T01:33:28;10.70;99.90
3053;DHT22;1536;51.098;6.414;2024-02-21T01:36:02;10.80;99.90
3053;DHT22;1536;51.098;6.414;2024-02-21T01:38:28;10.80;99.90
3053;DHT22;1536;51.098;6.414;2024-02-21T01:40:57;10.80;99.90
3053;DHT22;1536;51.098;6.414;2024-02-21T01:43:24;10.80;99.90
3053;DHT22;1536;51.098;6.414;2024-02-21T01:45:53;10.80;99.90
3053;DHT22;1536;51.098;6.414;2024-02-21T01:48:21;10.80;99.90
3053;DHT22;1536;51.098;6.414;2024-02-21T01:50:49;10.80;99.90
3053;DHT22;1536;51.098;6.414;2024-02-21T01:53:21;10.80;99.90
3053;DHT22;1536;51.098;6.414;2024-02-21T01:55:48;10.80;99.90
3053;DHT22;1536;51.098;6.414;2024-02-21T01:58:16;10.80;99.90
3053;DHT22;1536;51.098;6.414;2024-02-21T02:00:44;10.80;99.90
3053;DHT22;1536;51.098;6.414;2024-02-21T02:03:11;10.80;99.90
3053;DHT22;1536;51.098;6.414;2024-02-21T02:05:43;10.80;99.90
3053;DHT22;1536;51.098;6.414;2024-02-21T02:08:10;10.80;99.90
3053;DHT22;1536;51.098;6.414;2024-02-21T02:10:39;10.80;99.90
3053;DHT22;1536;51.098;6.414;2024-02-21T02:13:07;10.70;99.90
3053;DHT22;1536;51.098;6.414;2024-02-21T02:15:40;10.70;99.90
3053;DHT22;1536;51.098;6.414;2024-02-21T02:18:07;10.70;99.90
3053;DHT22;1536;51.098;6.414;2024-02-21T02:20:34;10.70;99.90
3053;DHT22;1536;51.098;6.414;2024-02-21T02:23:04;10.70;99.90
3053;DHT22;1536;51.098;6.414;2024-02-21T02:25:35;10.70;99.90
3053;DHT22;1536;51.098;6.414;2024-02-21T02:28:02;10.70;99.90
3053;DHT22;1536;51.098;6.414;2024-02-21T02:30:32;10.70;99.90
3053;DHT22;1536;51.098;6.414;2024-02-21T02:32:59;10.70;99.90
3053;DHT22;1536;51.098;6.414;2024-02-21T02:35:25;10.70;99.90
3053;DHT22;1536;51.098;6.414;2024-02-21T02:37:52;10.80;99.90
3053;DHT22;1536;51.098;6.414;2024-02-21T02:40:19;10.70;99.90
3053;DHT22;1536;51.098;6.414;2024-02-21T02:42:48;10.70;99.90
3053;DHT22;1536;51.098;6.414;2024-02-21T02:45:30;10.80;99.90
3053;DHT22;1536;51.098;6.414;2024-02-21T02:47:57;10.70;99.90
3053;DHT22;1536;51.098;6.414;2024-02-21T02:50:24;10.70;99.90
3053;DHT22;1536;51.098;6.414;2024-02-21T02:52:51;10.70;99.90
3053;DHT22;1536;51.098;6.414;2024-02-21T02:55:19;10.70;99.90
3053;DHT22;1536;51.098;6.414;2024-02-21T02:57:45;10.80;99.90
3053;DHT22;1536;51.098;6.414;2024-02-21T03:00:15;10.80;99.90
3053;DHT22;1536;51.098;6.414;2024-02-21T03:02:43;10.70;99.90
3053;DHT22;1536;51.098;6.414;2024-02-21T03:05:14;10.80;99.90
3053;DHT22;1536;51.098;6.414;2024-02-21T03:07:41;10.80;99.90
3053;DHT22;1536;51.098;6.414;2024-02-21T03:10:09;10.80;99.90
3053;DHT22;1536;51.098;6.414;2024-02-21T03:12:36;10.80;99.90
3053;DHT22;1536;51.098;6.414;2024-02-21T03:15:03;10.70;99.90
3053;DHT22;1536;51.098;6.414;2024-02-21T03:17:32;10.70;99.90
3053;DHT22;1536;51.098;6.414;2024-02-21T03:19:59;10.80;99.90
3053;DHT22;1536;51.098;6.414;2024-02-21T03:22:26;10.70;99.90
3053;DHT22;1536;51.098;6.414;2024-02-21T03:24:53;10.70;99.90
3053;DHT22;1536;51.098;6.414;2024-02-21T03:27:20;10.70;99.90
3053;DHT22;1536;51.098;6.414;2024-02-21T03:29:47;10.70;99.90
3053;DHT22;1536;51.098;6.414;2024-02-21T03:32:14;10.70;99.90
3053;DHT22;1536;51.098;6.414;2024-02-21T03:34:42;10.70;99.90
3053;DHT22;1536;51.098;6.414;2024-02-21T03:37:09;10.70;99.90
3053;DHT22;1536;51.098;6.414;2024-02-21T03:39:36;10.70;99.90
3053;DHT22;1536;51.098;6.414;2024-02-21T03:42:03;10.70;99.90
3053;DHT22;1536;51.098;6.414;2024-02-21T03:44:31;10.70;99.90
3053;DHT22;1536;51.098;6.414;2024-02-21T03:46:58;10.70;99.90
3053;DHT22;1536;51.098;6.414;2024-02-21T03:49:25;10.70;99.90
3053;DHT22;1536;51.098;6.414;2024-02-21T03:51:54;10.70;99.90
3053;DHT22;1536;51.098;6.414;2024-02-21T03:54:20;10.70;99.90
3053;DHT22;1536;51.098;6.414;2024-02-21T03:56:47;10.70;99.90
3053;DHT22;1536;51.098;6.414;2024-02-21T03:59:14;10.70;99.90
3053;DHT22;1536;51.098;6.414;2024-02-21T04:01:42;10.70;99.90
3053;DHT22;1536;51.098;6.414;2024-02-21T04:04:10;10.70;99.90
3053;DHT22;1536;51.098;6.414;2024-02-21T04:06:37;10.70;99.90
3053;DHT22;1536;51.098;6.414;2024-02-21T04:09:05;10.70;99.90
3053;DHT22;1536;51.098;6.414;2024-02-21T04:11:32;10.70;99.90
3053;DHT22;1536;51.098;6.414;2024-02-21T04:13:59;10.70;99.90
3053;DHT22;1536;51.098;6.414;2024-02-21T04:16:25;10.70;99.90
3053;DHT22;1536;51.098;6.414;2024-02-21T04:18:52;10.70;99.90
3053;DHT22;1536;51.098;6.414;2024-02-21T04:21:19;10.70;99.90
3053;DHT22;1536;51.098;6.414;2024-02-21T04:23:46;10.70;99.90
3053;DHT22;1536;51.098;6.414;2024-02-21T04:26:14;10.70;99.90
3053;DHT22;1536;51.098;6.414;2024-02-21T04:28:41;10.70;99.90
3053;DHT22;1536;51.098;6.414;2024-02-21T04:31:08;10.70;99.90
3053;DHT22;1536;51.098;6.414;2024-02-21T04:33:34;10.70;99.90
3053;DHT22;1536;51.098;6.414;2024-02-21T04:36:01;10.60;99.90
3053;DHT22;1536;51.098;6.414;2024-02-21T04:38:28;10.60;99.90
3053;DHT22;1536;51.098;6.414;2024-02-21T04:40:55;10.60;99.90
3053;DHT22;1536;51.098;6.414;2024-02-21T04:43:25;10.60;99.90
3053;DHT22;1536;51.098;6.414;2024-02-21T04:45:52;10.70;99.90
3053;DHT22;1536;51.098;6.414;2024-02-21T04:48:19;10.60;99.90
3053;DHT22;1536;51.098;6.414;2024-02-21T04:50:46;10.60;99.90
3053;DHT22;1536;51.098;6.414;2024-02-21T04:53:13;10.60;99.90
3053;DHT22;1536;51.098;6.414;2024-02-21T04:55:40;10.70;99.90
3053;DHT22;1536;51.098;6.414;2024-02-21T04:58:07;10.70;99.90
3053;DHT22;1536;51.098;6.414;2024-02-21T05:00:35;10.60;99.90
3053;DHT22;1536;51.098;6.414;2024-02-21T05:03:02;10.70;99.90
3053;DHT22;1536;51.098;6.414;2024-02-21T05:05:29;10.70;99.90
3053;DHT22;1536;51.098;6.414;2024-02-21T05:07:56;10.70;99.90
3053;DHT22;1536;51.098;6.414;2024-02-21T05:10:23;10.70;99.90
3053;DHT22;1536;51.098;6.414;2024-02-21T05:12:50;10.70;99.90
3053;DHT22;1536;51.098;6.414;2024-02-21T05:15:16;10.70;99.90
3053;DHT22;1536;51.098;6.414;2024-02-21T05:17:45;10.70;99.90
3053;DHT22;1536;51.098;6.414;2024-02-21T05:20:11;10.70;99.90
3053;DHT22;1536;51.098;6.414;2024-02-21T05:22:38;10.70;99.90
3053;DHT22;1536;51.098;6.414;2024-02-21T05:25:06;10.70;99.90
3053;DHT22;1536;51.098;6.414;2024-02-21T05:27:33;10.70;99.90
3053;DHT22;1536;51.098;6.414;2024-02-21T05:30:01;10.70;99.90
3053;DHT22;1536;51.098;6.414;2024-02-21T05:32:28;10.70;99.90
3053;DHT22;1536;51.098;6.414;2024-02-21T05:34:56;10.70;99.90
3053;DHT22;1536;51.098;6.414;2024-02-21T05:37:24;10.70;99.90
3053;DHT22;1536;51.098;6.414;2024-02-21T05:39:50;10.70;99.90
3053;DHT22;1536;51.098;6.414;2024-02-21T05:42:17;10.70;99.90
3053;DHT22;1536;51.098;6.414;2024-02-21T05:44:44;10.70;99.90
3053;DHT22;1536;51.098;6.414;2024-02-21T05:47:11;10.70;99.90
3053;DHT22;1536;51.098;6.414;2024-02-21T05:49:40;10.70;99.90
3053;DHT22;1536;51.098;6.414;2024-02-21T05:52:08;10.70;99.90
3053;DHT22;1536;51.098;6.414;2024-02-21T05:54:37;10.70;99.90
3053;DHT22;1536;51.098;6.414;2024-02-21T05:57:05;10.70;99.90
3053;DHT22;1536;51.098;6.414;2024-02-21T05:59:32;10.70;99.90
3053;DHT22;1536;51.098;6.414;2024-02-21T06:02:00;10.70;99.90
3053;DHT22;1536;51.098;6.414;2024-02-21T06:04:29;10.70;99.90
3053;DHT22;1536;51.098;6.414;2024-02-21T06:06:56;10.70;99.90
3053;DHT22;1536;51.098;6.414;2024-02-21T06:09:24;10.70;99.90
3053;DHT22;1536;51.098;6.414;2024-02-21T06:11:51;10.70;99.90
3053;DHT22;1536;51.098;6.414;2024-02-21T06:14:18;10.80;99.90
3053;DHT22;1536;51.098;6.414;2024-02-21T06:16:45;10.80;99.90
3053;DHT22;1536;51.098;6.414;2024-02-21T06:19:11;10.70;99.90
3053;DHT22;1536;51.098;6.414;2024-02-21T06:21:38;10.80;99.90
3053;DHT22;1536;51.098;6.414;2024-02-21T06:24:05;10.80;99.90
3053;DHT22;1536;51.098;6.414;2024-02-21T06:26:34;10.80;99.90
3053;DHT22;1536;51.098;6.414;2024-02-21T06:29:00;10.80;99.90
3053;DHT22;1536;51.098;6.414;2024-02-21T06:31:29;10.80;99.90
3053;DHT22;1536;51.098;6.414;2024-02-21T06:33:56;10.80;99.90
3053;DHT22;1536;51.098;6.414;2024-02-21T06:36:23;10.70;99.90
3053;DHT22;1536;51.098;6.414;2024-02-21T06:38:50;10.70;99.90
3053;DHT22;1536;51.098;6.414;2024-02-21T06:41:18;10.70;99.90
3053;DHT22;1536;51.098;6.414;2024-02-21T06:43:47;10.70;99.90
3053;DHT22;1536;51.098;6.414;2024-02-21T06:46:23;10.70;99.90
3053;DHT22;1536;51.098;6.414;2024-02-21T06:48:50;10.60;99.90
3053;DHT22;1536;51.098;6.414;2024-02-21T06:51:16;10.60;99.90
3053;DHT22;1536;51.098;6.414;2024-02-21T06:53:43;10.60;99.90
3053;DHT22;1536;51.098;6.414;2024-02-21T06:56:10;10.60;99.90
3053;DHT22;1536;51.098;6.414;2024-02-21T06:58:37;10.60;99.90
3053;DHT22;1536;51.098;6.414;2024-02-21T07:01:06;10.60;99.90
3053;DHT22;1536;51.098;6.414;2024-02-21T07:03:32;10.60;99.90
3053;DHT22;1536;51.098;6.414;2024-02-21T07:05:59;10.60;99.90
3053;DHT22;1536;51.098;6.414;2024-02-21T07:08:26;10.50;99.90
3053;DHT22;1536;51.098;6.414;2024-02-21T07:10:53;10.50;99.90
3053;DHT22;1536;51.098;6.414;2024-02-21T07:13:20;10.50;99.90
3053;DHT22;1536;51.098;6.414;2024-02-21T07:15:48;10.50;99.90
3053;DHT22;1536;51.098;6.414;2024-02-21T07:18:17;10.50;99.90
3053;DHT22;1536;51.098;6.414;2024-02-21T07:20:43;10.50;99.90
3053;DHT22;1536;51.098;6.414;2024-02-21T07:23:10;10.50;99.90
3053;DHT22;1536;51.098;6.414;2024-02-21T07:25:37;10.50;99.90
3053;DHT22;1536;51.098;6.414;2024-02-21T07:28:05;10.50;99.90
3053;DHT22;1536;51.098;6.414;2024-02-21T07:30:32;10.50;99.90
3053;DHT22;1536;51.098;6.414;2024-02-21T07:32:59;10.50;99.90
3053;DHT22;1536;51.098;6.414;2024-02-21T07:35:27;10.50;99.90
3053;DHT22;1536;51.098;6.414;2024-02-21T07:37:54;10.50;99.90
3053;DHT22;1536;51.098;6.414;2024-02-21T07:40:21;10.40;99.90
3053;DHT22;1536;51.098;6.414;2024-02-21T07:42:48;10.40;99.90
3053;DHT22;1536;51.098;6.414;2024-02-21T07:45:14;10.50;99.90
3053;DHT22;1536;51.098;6.414;2024-02-21T07:47:41;10.40;99.90
3053;DHT22;1536;51.098;6.414;2024-02-21T07:50:08;10.40;99.90
3053;DHT22;1536;51.098;6.414;2024-02-21T07:52:37;10.40;99.90
3053;DHT22;1536;51.098;6.414;2024-02-21T07:55:04;10.40;99.90
3053;DHT22;1536;51.098;6.414;2024-02-21T07:57:31;10.40;99.90
3053;DHT22;1536;51.098;6.414;2024-02-21T07:59:58;10.40;99.90
3053;DHT22;1536;51.098;6.414;2024-02-21T08:02:25;10.40;99.90
3053;DHT22;1536;51.098;6.414;2024-02-21T08:04:52;10.40;99.90
3053;DHT22;1536;51.098;6.414;2024-02-21T08:07:18;10.40;99.90
3053;DHT22;1536;51.098;6.414;2024-02-21T08:09:47;10.40;99.90
3053;DHT22;1536;51.098;6.414;2024-02-21T08:12:13;10.40;99.90
3053;DHT22;1536;51.098;6.414;2024-02-21T08:14:40;10.40;99.90
3053;DHT22;1536;51.098;6.414;2024-02-21T08:17:07;10.40;99.90
3053;DHT22;1536;51.098;6.414;2024-02-21T08:19:34;10.40;99.90
3053;DHT22;1536;51.098;6.414;2024-02-21T08:22:01;10.40;99.90
3053;DHT22;1536;51.098;6.414;2024-02-21T08:24:28;10.40;99.90
3053;DHT22;1536;51.098;6.414;2024-02-21T08:26:57;10.40;99.90
3053;DHT22;1536;51.098;6.414;2024-02-21T08:29:24;10.40;99.90
3053;DHT22;1536;51.098;6.414;2024-02-21T08:31:50;10.40;99.90
3053;DHT22;1536;51.098;6.414;2024-02-21T08:34:18;10.40;99.90
3053;DHT22;1536;51.098;6.414;2024-02-21T08:36:44;10.50;99.90
3053;DHT22;1536;51.098;6.414;2024-02-21T08:39:11;10.50;99.90
3053;DHT22;1536;51.098;6.414;2024-02-21T08:41:42;10.50;99.90
3053;DHT22;1536;51.098;6.414;2024-02-21T08:44:10;10.50;99.90
3053;DHT22;1536;51.098;6.414;2024-02-21T08:46:37;10.50;99.90
3053;DHT22;1536;51.098;6.414;2024-02-21T08:49:05;10.60;99.90
3053;DHT22;1536;51.098;6.414;2024-02-21T08:51:32;10.60;99.90
3053;DHT22;1536;51.098;6.414;2024-02-21T08:53:59;10.60;99.90
3053;DHT22;1536;51.098;6.414;2024-02-21T08:56:26;10.60;99.90
3053;DHT22;1536;51.098;6.414;2024-02-21T08:58:53;10.70;99.90
3053;DHT22;1536;51.098;6.414;2024-02-21T09:01:21;10.70;99.90
3053;DHT22;1536;51.098;6.414;2024-02-21T09:03:48;10.80;99.90
3053;DHT22;1536;51.098;6.414;2024-02-21T09:06:19;10.80;99.90
3053;DHT22;1536;51.098;6.414;2024-02-21T09:08:46;10.80;99.90
3053;DHT22;1536;51.098;6.414;2024-02-21T09:11:13;10.80;99.90
3053;DHT22;1536;51.098;6.414;2024-02-21T09:13:40;10.80;99.90
3053;DHT22;1536;51.098;6.414;2024-02-21T09:16:07;10.80;99.90
3053;DHT22;1536;51.098;6.414;2024-02-21T09:18:36;10.80;99.90
3053;DHT22;1536;51.098;6.414;2024-02-21T09:21:03;10.90;99.90
3053;DHT22;1536;51.098;6.414;2024-02-21T09:23:30;10.90;99.90
3053;DHT22;1536;51.098;6.414;2024-02-21T09:25:57;10.90;99.90
3053;DHT22;1536;51.098;6.414;2024-02-21T09:28:26;10.90;99.90
3053;DHT22;1536;51.098;6.414;2024-02-21T09:30:52;11.00;99.90
3053;DHT22;1536;51.098;6.414;2024-02-21T09:33:19;11.00;99.90
3053;DHT22;1536;51.098;6.414;2024-02-21T09:35:47;11.00;99.90
3053;DHT22;1536;51.098;6.414;2024-02-21T09:38:15;11.10;99.90
3053;DHT22;1536;51.098;6.414;2024-02-21T09:40:42;11.10;99.90
3053;DHT22;1536;51.098;6.414;2024-02-21T09:43:09;11.20;99.90
3053;DHT22;1536;51.098;6.414;2024-02-21T09:45:37;11.20;99.90
3053;DHT22;1536;51.098;6.414;2024-02-21T09:48:17;11.30;99.90
3053;DHT22;1536;51.098;6.414;2024-02-21T09:50:48;11.30;99.90
3053;DHT22;1536;51.098;6.414;2024-02-21T09:53:16;11.30;99.90
3053;DHT22;1536;51.098;6.414;2024-02-21T09:55:43;11.40;99.90
3053;DHT22;1536;51.098;6.414;2024-02-21T09:58:11;11.40;99.90
3053;DHT22;1536;51.098;6.414;2024-02-21T10:00:39;11.40;99.90
3053;DHT22;1536;51.098;6.414;2024-02-21T10:03:05;11.40;99.90
3053;DHT22;1536;51.098;6.414;2024-02-21T10:05:35;11.40;99.90
3053;DHT22;1536;51.098;6.414;2024-02-21T10:08:04;11.50;99.90
3053;DHT22;1536;51.098;6.414;2024-02-21T10:10:41;11.50;99.90
3053;DHT22;1536;51.098;6.414;2024-02-21T10:13:09;11.50;99.90
3053;DHT22;1536;51.098;6.414;2024-02-21T10:15:36;11.50;99.90
3053;DHT22;1536;51.098;6.414;2024-02-21T10:18:04;11.60;99.90
3053;DHT22;1536;51.098;6.414;2024-02-21T10:20:32;11.60;99.90
3053;DHT22;1536;51.098;6.414;2024-02-21T10:23:04;11.70;99.90
3053;DHT22;1536;51.098;6.414;2024-02-21T10:25:34;11.70;99.90
3053;DHT22;1536;51.098;6.414;2024-02-21T10:28:01;11.70;99.90
3053;DHT22;1536;51.098;6.414;2024-02-21T10:30:28;11.70;99.90
3053;DHT22;1536;51.098;6.414;2024-02-21T10:32:56;11.70;99.90
3053;DHT22;1536;51.098;6.414;2024-02-21T10:35:26;11.70;99.90
3053;DHT22;1536;51.098;6.414;2024-02-21T10:37:54;11.70;99.90
3053;DHT22;1536;51.098;6.414;2024-02-21T10:40:24;11.70;99.90
3053;DHT22;1536;51.098;6.414;2024-02-21T10:42:56;11.70;99.90
3053;DHT22;1536;51.098;6.414;2024-02-21T10:45:29;11.80;99.90
3053;DHT22;1536;51.098;6.414;2024-02-21T10:48:07;11.80;99.90
3053;DHT22;1536;51.098;6.414;2024-02-21T10:50:40;11.90;99.90
3053;DHT22;1536;51.098;6.414;2024-02-21T10:53:18;11.90;99.90
3053;DHT22;1536;51.098;6.414;2024-02-21T10:55:58;11.90;99.90
3053;DHT22;1536;51.098;6.414;2024-02-21T10:58:29;12.00;99.90
3053;DHT22;1536;51.098;6.414;2024-02-21T11:00:57;12.00;99.90
3053;DHT22;1536;51.098;6.414;2024-02-21T11:03:24;12.10;99.90
3053;DHT22;1536;51.098;6.414;2024-02-21T11:05:51;12.10;99.90
3053;DHT22;1536;51.098;6.414;2024-02-21T11:08:18;12.10;99.90
3053;DHT22;1536;51.098;6.414;2024-02-21T11:10:46;12.10;99.90
3053;DHT22;1536;51.098;6.414;2024-02-21T11:13:14;12.20;99.90
3053;DHT22;1536;51.098;6.414;2024-02-21T11:15:41;12.20;99.90
3053;DHT22;1536;51.098;6.414;2024-02-21T11:18:08;12.20;99.90
3053;DHT22;1536;51.098;6.414;2024-02-21T11:20:36;12.20;99.90
3053;DHT22;1536;51.098;6.414;2024-02-21T11:23:03;12.20;99.90
3053;DHT22;1536;51.098;6.414;2024-02-21T11:25:30;12.30;99.90
3053;DHT22;1536;51.098;6.414;2024-02-21T11:28:00;12.30;99.90
3053;DHT22;1536;51.098;6.414;2024-02-21T11:30:30;12.30;99.90
3053;DHT22;1536;51.098;6.414;2024-02-21T11:33:01;12.30;99.90
3053;DHT22;1536;51.098;6.414;2024-02-21T11:35:31;12.40;99.90
3053;DHT22;1536;51.098;6.414;2024-02-21T11:38:08;12.40;99.90
3053;DHT22;1536;51.098;6.414;2024-02-21T11:40:37;12.40;99.90
3053;DHT22;1536;51.098;6.414;2024-02-21T11:43:04;12.40;99.90
3053;DHT22;1536;51.098;6.414;2024-02-21T11:45:33;12.40;99.90
3053;DHT22;1536;51.098;6.414;2024-02-21T11:48:00;12.40;99.90
3053;DHT22;1536;51.098;6.414;2024-02-21T11:50:29;12.40;99.90
3053;DHT22;1536;51.098;6.414;2024-02-21T11:52:59;12.40;99.90
3053;DHT22;1536;51.098;6.414;2024-02-21T11:55:25;12.40;99.90
3053;DHT22;1536;51.098;6.414;2024-02-21T11:57:53;12.40;99.90
3053;DHT22;1536;51.098;6.414;2024-02-21T12:00:20;12.40;99.90
3053;DHT22;1536;51.098;6.414;2024-02-21T12:02:50;12.40;99.90
3053;DHT22;1536;51.098;6.414;2024-02-21T12:05:18;12.40;99.90
3053;DHT22;1536;51.098;6.414;2024-02-21T12:07:45;12.40;99.90
3053;DHT22;1536;51.098;6.414;2024-02-21T12:10:13;12.40;99.90
3053;DHT22;1536;51.098;6.414;2024-02-21T12:12:41;12.40;99.90
3053;DHT22;1536;51.098;6.414;2024-02-21T12:15:08;12.50;99.90
3053;DHT22;1536;51.098;6.414;2024-02-21T12:17:35;12.50;99.90
3053;DHT22;1536;51.098;6.414;2024-02-21T12:20:04;12.50;99.90
3053;DHT22;1536;51.098;6.414;2024-02-21T12:22:35;12.50;99.90
3053;DHT22;1536;51.098;6.414;2024-02-21T12:25:03;12.60;99.90
3053;DHT22;1536;51.098;6.414;2024-02-21T12:27:33;12.70;99.90
3053;DHT22;1536;51.098;6.414;2024-02-21T12:30:00;12.70;99.90
3053;DHT22;1536;51.098;6.414;2024-02-21T12:32:26;12.70;99.90
3053;DHT22;1536;51.098;6.414;2024-02-21T12:34:53;12.80;99.90
3053;DHT22;1536;51.098;6.414;2024-02-21T12:37:24;12.80;99.90
3053;DHT22;1536;51.098;6.414;2024-02-21T12:39:51;12.80;99.90
3053;DHT22;1536;51.098;6.414;2024-02-21T12:42:18;12.90;99.90
3053;DHT22;1536;51.098;6.414;2024-02-21T12:44:45;12.90;99.90
3053;DHT22;1536;51.098;6.414;2024-02-21T12:47:12;13.00;99.90
3053;DHT22;1536;51.098;6.414;2024-02-21T12:49:38;13.00;99.90
3053;DHT22;1536;51.098;6.414;2024-02-21T12:52:05;13.00;99.90
3053;DHT22;1536;51.098;6.414;2024-02-21T12:54:34;13.10;99.90
3053;DHT22;1536;51.098;6.414;2024-02-21T12:57:00;13.10;99.90
3053;DHT22;1536;51.098;6.414;2024-02-21T12:59:28;13.10;99.90
3053;DHT22;1536;51.098;6.414;2024-02-21T13:01:55;13.10;99.90
3053;DHT22;1536;51.098;6.414;2024-02-21T13:04:22;13.20;99.90
3053;DHT22;1536;51.098;6.414;2024-02-21T13:06:49;13.20;99.90
3053;DHT22;1536;51.098;6.414;2024-02-21T13:09:16;13.20;99.90
3053;DHT22;1536;51.098;6.414;2024-02-21T13:11:45;13.20;99.90
3053;DHT22;1536;51.098;6.414;2024-02-21T13:14:12;13.30;99.90
3053;DHT22;1536;51.098;6.414;2024-02-21T13:16:38;13.30;99.90
3053;DHT22;1536;51.098;6.414;2024-02-21T13:19:06;13.30;99.90
3053;DHT22;1536;51.098;6.414;2024-02-21T13:21:33;13.20;99.90
3053;DHT22;1536;51.098;6.414;2024-02-21T13:24:00;13.30;99.90
3053;DHT22;1536;51.098;6.414;2024-02-21T13:26:27;13.30;99.90
3053;DHT22;1536;51.098;6.414;2024-02-21T13:28:55;13.30;99.90
3053;DHT22;1536;51.098;6.414;2024-02-21T13:31:22;13.30;99.90
3053;DHT22;1536;51.098;6.414;2024-02-21T13:33:50;13.40;99.90
3053;DHT22;1536;51.098;6.414;2024-02-21T13:36:17;13.40;99.90
3053;DHT22;1536;51.098;6.414;2024-02-21T13:38:44;13.50;99.90
3053;DHT22;1536;51.098;6.414;2024-02-21T13:41:12;13.50;99.90
3053;DHT22;1536;51.098;6.414;2024-02-21T13:46:37;13.50;99.90
3053;DHT22;1536;51.098;6.414;2024-02-21T13:49:05;13.50;99.90
3053;DHT22;1536;51.098;6.414;2024-02-21T13:51:33;13.50;99.90
3053;DHT22;1536;51.098;6.414;2024-02-21T13:54:01;13.50;99.90
3053;DHT22;1536;51.098;6.414;2024-02-21T13:56:28;13.50;99.90
3053;DHT22;1536;51.098;6.414;2024-02-21T13:58:55;13.50;99.90
3053;DHT22;1536;51.098;6.414;2024-02-21T14:01:22;13.50;99.90
3053;DHT22;1536;51.098;6.414;2024-02-21T14:03:50;13.50;99.90
3053;DHT22;1536;51.098;6.414;2024-02-21T14:06:17;13.50;99.90
3053;DHT22;1536;51.098;6.414;2024-02-21T14:08:44;13.50;99.90
3053;DHT22;1536;51.098;6.414;2024-02-21T14:11:11;13.50;99.90
3053;DHT22;1536;51.098;6.414;2024-02-21T14:13:40;13.50;99.90
3053;DHT22;1536;51.098;6.414;2024-02-21T14:16:09;13.50;99.90
3053;DHT22;1536;51.098;6.414;2024-02-21T14:18:38;13.50;99.90
3053;DHT22;1536;51.098;6.414;2024-02-21T14:21:07;13.50;99.90
3053;DHT22;1536;51.098;6.414;2024-02-21T14:23:36;13.50;99.90
3053;DHT22;1536;51.098;6.414;2024-02-21T14:26:03;13.50;99.90
3053;DHT22;1536;51.098;6.414;2024-02-21T14:28:30;13.50;99.90
3053;DHT22;1536;51.098;6.414;2024-02-21T14:30:59;13.40;99.90
3053;DHT22;1536;51.098;6.414;2024-02-21T14:33:26;13.40;99.90
3053;DHT22;1536;51.098;6.414;2024-02-21T14:35:53;13.40;99.90
3053;DHT22;1536;51.098;6.414;2024-02-21T14:38:21;13.40;99.90
3053;DHT22;1536;51.098;6.414;2024-02-21T14:40:49;13.40;99.90
3053;DHT22;1536;51.098;6.414;2024-02-21T14:43:15;13.40;99.90
3053;DHT22;1536;51.098;6.414;2024-02-21T14:45:43;13.40;99.90
3053;DHT22;1536;51.098;6.414;2024-02-21T14:48:13;13.40;99.90
3053;DHT22;1536;51.098;6.414;2024-02-21T14:50:40;13.40;99.90
3053;DHT22;1536;51.098;6.414;2024-02-21T14:53:07;13.30;99.90
3053;DHT22;1536;51.098;6.414;2024-02-21T14:55:35;13.30;99.90
3053;DHT22;1536;51.098;6.414;2024-02-21T14:58:05;13.30;99.90
3053;DHT22;1536;51.098;6.414;2024-02-21T15:00:32;13.20;99.90
3053;DHT22;1536;51.098;6.414;2024-02-21T15:02:59;13.20;99.90
3053;DHT22;1536;51.098;6.414;2024-02-21T15:05:26;13.20;99.90
3053;DHT22;1536;51.098;6.414;2024-02-21T15:07:55;13.20;99.90
3053;DHT22;1536;51.098;6.414;2024-02-21T15:10:22;13.20;99.90
3053;DHT22;1536;51.098;6.414;2024-02-21T15:12:51;13.20;99.90
3053;DHT22;1536;51.098;6.414;2024-02-21T15:15:18;13.10;99.90
3053;DHT22;1536;51.098;6.414;2024-02-21T15:17:44;13.10;99.90
3053;DHT22;1536;51.098;6.414;2024-02-21T15:20:12;13.10;99.90
3053;DHT22;1536;51.098;6.414;2024-02-21T15:22:38;13.10;99.90
3053;DHT22;1536;51.098;6.414;2024-02-21T15:25:06;13.10;99.90
3053;DHT22;1536;51.098;6.414;2024-02-21T15:27:33;13.10;99.90
3053;DHT22;1536;51.098;6.414;2024-02-21T15:30:03;13.00;99.90
3053;DHT22;1536;51.098;6.414;2024-02-21T15:32:31;13.00;99.90
3053;DHT22;1536;51.098;6.414;2024-02-21T15:34:58;13.00;99.90
3053;DHT22;1536;51.098;6.414;2024-02-21T15:37:25;13.00;99.90
3053;DHT22;1536;51.098;6.414;2024-02-21T15:39:52;13.00;99.90
3053;DHT22;1536;51.098;6.414;2024-02-21T15:42:18;12.90;99.90
3053;DHT22;1536;51.098;6.414;2024-02-21T15:44:46;12.90;99.90
3053;DHT22;1536;51.098;6.414;2024-02-21T15:47:14;12.90;99.90
3053;DHT22;1536;51.098;6.414;2024-02-21T15:49:44;12.80;99.90
3053;DHT22;1536;51.098;6.414;2024-02-21T15:52:10;12.80;99.90
3053;DHT22;1536;51.098;6.414;2024-02-21T15:54:37;12.80;99.90
3053;DHT22;1536;51.098;6.414;2024-02-21T15:57:05;12.80;99.90
3053;DHT22;1536;51.098;6.414;2024-02-21T15:59:33;12.70;99.90
3053;DHT22;1536;51.098;6.414;2024-02-21T16:02:00;12.70;99.90
3053;DHT22;1536;51.098;6.414;2024-02-21T16:04:28;12.70;99.90
3053;DHT22;1536;51.098;6.414;2024-02-21T16:06:56;12.60;99.90